Terminal Aerodrome Forecast
Issued by NWS

Home | Current Version | Previous Version | Text Only | Print | Product List | Glossary On
Versions: 1 2 3 4 5 6 7 8 9 10 11 12 13
000
FTUS45 KGJT 150523
TAFCNY
TAF
KCNY 150523Z 1506/1606 26005KT P6SM SKC
     FM151500 VRB04KT P6SM FEW250
     FM151900 31004KT P6SM SKC=

USA.gov is the U.S. government's official web portal to all federal, state and local government web resources and services.